sensor_id;sensor_type;location;lat;lon;timestamp;P1;durP1;ratioP1;P2;durP2;ratioP2
3733;SDS011;1882;52.256;8.874;2022-07-29T00:02:14;6.40;;;2.20;;
3733;SDS011;1882;52.256;8.874;2022-07-29T00:04:41;3.60;;;2.30;;
3733;SDS011;1882;52.256;8.874;2022-07-29T00:07:08;9.33;;;2.37;;
3733;SDS011;1882;52.256;8.874;2022-07-29T00:09:36;4.07;;;2.43;;
3733;SDS011;1882;52.256;8.874;2022-07-29T00:12:17;5.80;;;2.50;;
3733;SDS011;1882;52.256;8.874;2022-07-29T00:14:52;4.43;;;2.37;;
3733;SDS011;1882;52.256;8.874;2022-07-29T00:17:22;7.90;;;2.37;;
3733;SDS011;1882;52.256;8.874;2022-07-29T00:19:50;5.17;;;2.40;;
3733;SDS011;1882;52.256;8.874;2022-07-29T00:22:17;4.30;;;2.27;;
3733;SDS011;1882;52.256;8.874;2022-07-29T00:24:43;3.90;;;2.50;;
3733;SDS011;1882;52.256;8.874;2022-07-29T00:27:10;3.93;;;2.17;;
3733;SDS011;1882;52.256;8.874;2022-07-29T00:29:37;8.47;;;2.37;;
3733;SDS011;1882;52.256;8.874;2022-07-29T00:32:04;5.73;;;2.20;;
3733;SDS011;1882;52.256;8.874;2022-07-29T00:34:31;5.40;;;2.50;;
3733;SDS011;1882;52.256;8.874;2022-07-29T00:37:17;6.50;;;2.40;;
3733;SDS011;1882;52.256;8.874;2022-07-29T00:39:44;5.23;;;2.17;;
3733;SDS011;1882;52.256;8.874;2022-07-29T00:42:10;5.80;;;2.30;;
3733;SDS011;1882;52.256;8.874;2022-07-29T00:44:38;7.63;;;2.33;;
3733;SDS011;1882;52.256;8.874;2022-07-29T00:47:05;3.00;;;2.20;;
3733;SDS011;1882;52.256;8.874;2022-07-29T00:49:35;7.87;;;2.30;;
3733;SDS011;1882;52.256;8.874;2022-07-29T00:52:06;4.83;;;2.30;;
3733;SDS011;1882;52.256;8.874;2022-07-29T00:54:34;2.60;;;2.30;;
3733;SDS011;1882;52.256;8.874;2022-07-29T00:57:09;5.10;;;2.40;;
3733;SDS011;1882;52.256;8.874;2022-07-29T00:59:35;4.00;;;2.23;;
3733;SDS011;1882;52.256;8.874;2022-07-29T01:02:02;7.37;;;2.27;;
3733;SDS011;1882;52.256;8.874;2022-07-29T01:04:30;10.10;;;2.47;;
3733;SDS011;1882;52.256;8.874;2022-07-29T01:06:57;4.63;;;2.30;;
3733;SDS011;1882;52.256;8.874;2022-07-29T01:09:24;3.57;;;2.03;;
3733;SDS011;1882;52.256;8.874;2022-07-29T01:12:16;2.77;;;2.47;;
3733;SDS011;1882;52.256;8.874;2022-07-29T01:14:44;3.50;;;2.30;;
3733;SDS011;1882;52.256;8.874;2022-07-29T01:17:14;5.27;;;2.30;;
3733;SDS011;1882;52.256;8.874;2022-07-29T01:22:35;6.20;;;2.53;;
3733;SDS011;1882;52.256;8.874;2022-07-29T01:27:57;4.93;;;2.03;;
3733;SDS011;1882;52.256;8.874;2022-07-29T01:30:49;10.03;;;2.60;;
3733;SDS011;1882;52.256;8.874;2022-07-29T01:33:18;4.93;;;2.50;;
3733;SDS011;1882;52.256;8.874;2022-07-29T01:36:07;2.40;;;2.20;;
3733;SDS011;1882;52.256;8.874;2022-07-29T01:38:38;4.63;;;2.40;;
3733;SDS011;1882;52.256;8.874;2022-07-29T01:41:07;6.63;;;2.23;;
3733;SDS011;1882;52.256;8.874;2022-07-29T01:43:42;5.80;;;2.27;;
3733;SDS011;1882;52.256;8.874;2022-07-29T01:46:14;9.23;;;2.10;;
3733;SDS011;1882;52.256;8.874;2022-07-29T01:48:52;3.47;;;2.27;;
3733;SDS011;1882;52.256;8.874;2022-07-29T01:51:24;6.20;;;2.00;;
3733;SDS011;1882;52.256;8.874;2022-07-29T01:53:59;3.83;;;2.07;;
3733;SDS011;1882;52.256;8.874;2022-07-29T01:56:27;3.60;;;2.10;;
3733;SDS011;1882;52.256;8.874;2022-07-29T01:58:57;2.83;;;2.30;;
3733;SDS011;1882;52.256;8.874;2022-07-29T02:01:25;3.90;;;2.37;;
3733;SDS011;1882;52.256;8.874;2022-07-29T02:03:53;6.30;;;2.40;;
3733;SDS011;1882;52.256;8.874;2022-07-29T02:06:21;2.50;;;2.07;;
3733;SDS011;1882;52.256;8.874;2022-07-29T02:08:49;2.87;;;2.17;;
3733;SDS011;1882;52.256;8.874;2022-07-29T02:11:16;3.53;;;2.00;;
3733;SDS011;1882;52.256;8.874;2022-07-29T02:13:43;3.23;;;2.13;;
3733;SDS011;1882;52.256;8.874;2022-07-29T02:16:10;3.83;;;2.03;;
3733;SDS011;1882;52.256;8.874;2022-07-29T02:18:39;4.57;;;2.00;;
3733;SDS011;1882;52.256;8.874;2022-07-29T02:21:08;3.83;;;2.10;;
3733;SDS011;1882;52.256;8.874;2022-07-29T02:23:41;2.93;;;1.97;;
3733;SDS011;1882;52.256;8.874;2022-07-29T02:26:17;6.87;;;2.00;;
3733;SDS011;1882;52.256;8.874;2022-07-29T02:28:44;3.20;;;1.90;;
3733;SDS011;1882;52.256;8.874;2022-07-29T02:31:12;6.60;;;2.07;;
3733;SDS011;1882;52.256;8.874;2022-07-29T02:33:40;3.70;;;2.00;;
3733;SDS011;1882;52.256;8.874;2022-07-29T02:36:07;6.03;;;2.17;;
3733;SDS011;1882;52.256;8.874;2022-07-29T02:38:34;3.00;;;1.80;;
3733;SDS011;1882;52.256;8.874;2022-07-29T02:41:18;5.70;;;2.10;;
3733;SDS011;1882;52.256;8.874;2022-07-29T02:43:50;2.80;;;2.00;;
3733;SDS011;1882;52.256;8.874;2022-07-29T02:46:25;2.80;;;1.90;;
3733;SDS011;1882;52.256;8.874;2022-07-29T02:49:13;2.33;;;2.10;;
3733;SDS011;1882;52.256;8.874;2022-07-29T02:51:46;5.87;;;2.33;;
3733;SDS011;1882;52.256;8.874;2022-07-29T02:55:02;3.13;;;1.80;;
3733;SDS011;1882;52.256;8.874;2022-07-29T02:57:08;3.07;;;2.50;;
3733;SDS011;1882;52.256;8.874;2022-07-29T02:59:38;7.67;;;2.43;;
3733;SDS011;1882;52.256;8.874;2022-07-29T03:02:08;9.17;;;2.70;;
3733;SDS011;1882;52.256;8.874;2022-07-29T03:04:36;4.70;;;2.33;;
3733;SDS011;1882;52.256;8.874;2022-07-29T03:07:04;2.67;;;2.10;;
3733;SDS011;1882;52.256;8.874;2022-07-29T03:09:31;3.80;;;2.37;;
3733;SDS011;1882;52.256;8.874;2022-07-29T03:11:58;4.23;;;2.50;;
3733;SDS011;1882;52.256;8.874;2022-07-29T03:14:26;4.43;;;2.17;;
3733;SDS011;1882;52.256;8.874;2022-07-29T03:16:52;5.60;;;2.20;;
3733;SDS011;1882;52.256;8.874;2022-07-29T03:19:19;3.50;;;2.20;;
3733;SDS011;1882;52.256;8.874;2022-07-29T03:21:47;4.03;;;2.20;;
3733;SDS011;1882;52.256;8.874;2022-07-29T03:26:54;5.97;;;2.20;;
3733;SDS011;1882;52.256;8.874;2022-07-29T03:29:21;2.87;;;2.00;;
3733;SDS011;1882;52.256;8.874;2022-07-29T03:31:49;9.80;;;2.60;;
3733;SDS011;1882;52.256;8.874;2022-07-29T03:34:17;9.70;;;2.27;;
3733;SDS011;1882;52.256;8.874;2022-07-29T03:36:44;3.43;;;2.07;;
3733;SDS011;1882;52.256;8.874;2022-07-29T03:39:13;6.53;;;2.00;;
3733;SDS011;1882;52.256;8.874;2022-07-29T03:41:46;4.63;;;2.10;;
3733;SDS011;1882;52.256;8.874;2022-07-29T03:44:15;3.50;;;1.80;;
3733;SDS011;1882;52.256;8.874;2022-07-29T03:46:43;3.13;;;2.40;;
3733;SDS011;1882;52.256;8.874;2022-07-29T03:49:11;5.10;;;2.20;;
3733;SDS011;1882;52.256;8.874;2022-07-29T03:51:38;5.00;;;2.53;;
3733;SDS011;1882;52.256;8.874;2022-07-29T03:54:05;2.63;;;2.10;;
3733;SDS011;1882;52.256;8.874;2022-07-29T03:56:37;6.23;;;2.40;;
3733;SDS011;1882;52.256;8.874;2022-07-29T03:59:06;5.50;;;2.40;;
3733;SDS011;1882;52.256;8.874;2022-07-29T04:01:34;4.80;;;2.27;;
3733;SDS011;1882;52.256;8.874;2022-07-29T04:04:01;2.97;;;2.10;;
3733;SDS011;1882;52.256;8.874;2022-07-29T04:06:28;5.33;;;2.20;;
3733;SDS011;1882;52.256;8.874;2022-07-29T04:08:54;3.80;;;1.90;;
3733;SDS011;1882;52.256;8.874;2022-07-29T04:11:21;5.03;;;2.40;;
3733;SDS011;1882;52.256;8.874;2022-07-29T04:13:48;7.93;;;2.20;;
3733;SDS011;1882;52.256;8.874;2022-07-29T04:16:14;3.57;;;2.00;;
3733;SDS011;1882;52.256;8.874;2022-07-29T04:18:41;2.63;;;2.30;;
3733;SDS011;1882;52.256;8.874;2022-07-29T04:21:08;4.03;;;2.07;;
3733;SDS011;1882;52.256;8.874;2022-07-29T04:23:34;3.43;;;2.07;;
3733;SDS011;1882;52.256;8.874;2022-07-29T04:26:18;2.37;;;2.10;;
3733;SDS011;1882;52.256;8.874;2022-07-29T04:28:46;2.90;;;1.97;;
3733;SDS011;1882;52.256;8.874;2022-07-29T04:31:13;4.70;;;2.00;;
3733;SDS011;1882;52.256;8.874;2022-07-29T04:33:39;6.63;;;2.03;;
3733;SDS011;1882;52.256;8.874;2022-07-29T04:36:06;4.30;;;2.27;;
3733;SDS011;1882;52.256;8.874;2022-07-29T04:38:53;3.07;;;2.00;;
3733;SDS011;1882;52.256;8.874;2022-07-29T04:41:19;4.50;;;2.30;;
3733;SDS011;1882;52.256;8.874;2022-07-29T04:43:46;2.90;;;2.23;;
3733;SDS011;1882;52.256;8.874;2022-07-29T04:46:13;4.20;;;2.10;;
3733;SDS011;1882;52.256;8.874;2022-07-29T04:48:40;5.20;;;1.97;;
3733;SDS011;1882;52.256;8.874;2022-07-29T04:51:07;2.73;;;2.10;;
3733;SDS011;1882;52.256;8.874;2022-07-29T04:53:36;3.60;;;2.10;;
3733;SDS011;1882;52.256;8.874;2022-07-29T04:56:03;5.70;;;2.23;;
3733;SDS011;1882;52.256;8.874;2022-07-29T04:58:30;3.63;;;2.53;;
3733;SDS011;1882;52.256;8.874;2022-07-29T05:00:57;2.50;;;2.23;;
3733;SDS011;1882;52.256;8.874;2022-07-29T05:03:24;4.37;;;2.40;;
3733;SDS011;1882;52.256;8.874;2022-07-29T05:05:51;2.60;;;2.03;;
3733;SDS011;1882;52.256;8.874;2022-07-29T05:08:17;8.03;;;2.33;;
3733;SDS011;1882;52.256;8.874;2022-07-29T05:10:44;5.20;;;2.37;;
3733;SDS011;1882;52.256;8.874;2022-07-29T05:13:11;4.97;;;2.53;;
3733;SDS011;1882;52.256;8.874;2022-07-29T05:15:38;2.70;;;2.00;;
3733;SDS011;1882;52.256;8.874;2022-07-29T05:18:06;6.60;;;2.43;;
3733;SDS011;1882;52.256;8.874;2022-07-29T05:20:33;5.90;;;2.40;;
3733;SDS011;1882;52.256;8.874;2022-07-29T05:23:01;2.60;;;2.17;;
3733;SDS011;1882;52.256;8.874;2022-07-29T05:25:29;6.43;;;2.60;;
3733;SDS011;1882;52.256;8.874;2022-07-29T05:28:10;5.67;;;1.90;;
3733;SDS011;1882;52.256;8.874;2022-07-29T05:30:37;2.37;;;2.17;;
3733;SDS011;1882;52.256;8.874;2022-07-29T05:33:04;3.63;;;2.50;;
3733;SDS011;1882;52.256;8.874;2022-07-29T05:35:31;8.60;;;2.40;;
3733;SDS011;1882;52.256;8.874;2022-07-29T05:37:58;13.93;;;2.77;;
3733;SDS011;1882;52.256;8.874;2022-07-29T05:40:25;5.93;;;2.43;;
3733;SDS011;1882;52.256;8.874;2022-07-29T05:42:52;6.30;;;2.80;;
3733;SDS011;1882;52.256;8.874;2022-07-29T05:45:18;4.60;;;2.10;;
3733;SDS011;1882;52.256;8.874;2022-07-29T05:47:46;7.30;;;2.40;;
3733;SDS011;1882;52.256;8.874;2022-07-29T05:50:14;5.87;;;2.60;;
3733;SDS011;1882;52.256;8.874;2022-07-29T05:52:41;5.37;;;2.50;;
3733;SDS011;1882;52.256;8.874;2022-07-29T05:55:08;3.33;;;2.43;;
3733;SDS011;1882;52.256;8.874;2022-07-29T05:57:35;6.50;;;2.70;;
3733;SDS011;1882;52.256;8.874;2022-07-29T06:00:02;6.27;;;2.80;;
3733;SDS011;1882;52.256;8.874;2022-07-29T06:02:37;22.20;;;3.03;;
3733;SDS011;1882;52.256;8.874;2022-07-29T06:05:04;4.63;;;2.90;;
3733;SDS011;1882;52.256;8.874;2022-07-29T06:07:35;6.90;;;2.83;;
3733;SDS011;1882;52.256;8.874;2022-07-29T06:10:04;7.67;;;3.07;;
3733;SDS011;1882;52.256;8.874;2022-07-29T06:12:31;4.87;;;3.10;;
3733;SDS011;1882;52.256;8.874;2022-07-29T06:14:57;10.60;;;3.50;;
3733;SDS011;1882;52.256;8.874;2022-07-29T06:17:24;7.47;;;3.50;;
3733;SDS011;1882;52.256;8.874;2022-07-29T06:19:51;10.20;;;3.27;;
3733;SDS011;1882;52.256;8.874;2022-07-29T06:22:20;5.53;;;3.60;;
3733;SDS011;1882;52.256;8.874;2022-07-29T06:24:47;11.73;;;3.97;;
3733;SDS011;1882;52.256;8.874;2022-07-29T06:27:14;7.47;;;3.97;;
3733;SDS011;1882;52.256;8.874;2022-07-29T06:29:41;6.00;;;3.87;;
3733;SDS011;1882;52.256;8.874;2022-07-29T06:32:08;6.30;;;3.00;;
3733;SDS011;1882;52.256;8.874;2022-07-29T06:34:35;4.70;;;2.90;;
3733;SDS011;1882;52.256;8.874;2022-07-29T06:37:08;6.97;;;3.10;;
3733;SDS011;1882;52.256;8.874;2022-07-29T06:39:41;5.40;;;2.87;;
3733;SDS011;1882;52.256;8.874;2022-07-29T06:42:09;9.53;;;3.27;;
3733;SDS011;1882;52.256;8.874;2022-07-29T06:44:36;5.33;;;2.63;;
3733;SDS011;1882;52.256;8.874;2022-07-29T06:47:02;5.20;;;2.70;;
3733;SDS011;1882;52.256;8.874;2022-07-29T06:49:29;5.50;;;3.10;;
3733;SDS011;1882;52.256;8.874;2022-07-29T06:51:56;10.03;;;3.13;;
3733;SDS011;1882;52.256;8.874;2022-07-29T06:54:22;5.73;;;2.97;;
3733;SDS011;1882;52.256;8.874;2022-07-29T06:56:49;4.70;;;3.10;;
3733;SDS011;1882;52.256;8.874;2022-07-29T06:59:16;6.37;;;3.13;;
3733;SDS011;1882;52.256;8.874;2022-07-29T07:01:44;5.07;;;2.20;;
3733;SDS011;1882;52.256;8.874;2022-07-29T07:04:11;9.83;;;2.77;;
3733;SDS011;1882;52.256;8.874;2022-07-29T07:06:40;4.27;;;2.60;;
3733;SDS011;1882;52.256;8.874;2022-07-29T07:09:07;3.37;;;2.50;;
3733;SDS011;1882;52.256;8.874;2022-07-29T07:11:34;3.93;;;2.63;;
3733;SDS011;1882;52.256;8.874;2022-07-29T07:14:01;5.97;;;3.30;;
3733;SDS011;1882;52.256;8.874;2022-07-29T07:16:39;6.10;;;3.30;;
3733;SDS011;1882;52.256;8.874;2022-07-29T07:19:07;8.20;;;3.20;;
3733;SDS011;1882;52.256;8.874;2022-07-29T07:21:34;4.57;;;2.60;;
3733;SDS011;1882;52.256;8.874;2022-07-29T07:24:02;9.10;;;2.90;;
3733;SDS011;1882;52.256;8.874;2022-07-29T07:26:29;5.80;;;2.90;;
3733;SDS011;1882;52.256;8.874;2022-07-29T07:28:56;7.70;;;3.10;;
3733;SDS011;1882;52.256;8.874;2022-07-29T07:31:24;6.23;;;3.57;;
3733;SDS011;1882;52.256;8.874;2022-07-29T07:33:50;8.73;;;3.50;;
3733;SDS011;1882;52.256;8.874;2022-07-29T07:36:18;7.50;;;3.30;;
3733;SDS011;1882;52.256;8.874;2022-07-29T07:38:46;10.67;;;3.50;;
3733;SDS011;1882;52.256;8.874;2022-07-29T07:41:16;4.93;;;3.03;;
3733;SDS011;1882;52.256;8.874;2022-07-29T07:43:43;8.37;;;3.13;;
3733;SDS011;1882;52.256;8.874;2022-07-29T07:46:10;7.37;;;2.73;;
3733;SDS011;1882;52.256;8.874;2022-07-29T07:48:37;7.07;;;3.03;;
3733;SDS011;1882;52.256;8.874;2022-07-29T07:51:05;7.33;;;3.00;;
3733;SDS011;1882;52.256;8.874;2022-07-29T07:53:33;4.90;;;2.60;;
3733;SDS011;1882;52.256;8.874;2022-07-29T07:56:01;7.17;;;2.80;;
3733;SDS011;1882;52.256;8.874;2022-07-29T07:58:38;5.67;;;2.50;;
3733;SDS011;1882;52.256;8.874;2022-07-29T08:01:06;5.30;;;2.80;;
3733;SDS011;1882;52.256;8.874;2022-07-29T08:03:33;4.17;;;2.80;;
3733;SDS011;1882;52.256;8.874;2022-07-29T08:06:04;11.40;;;2.50;;
3733;SDS011;1882;52.256;8.874;2022-07-29T08:08:32;5.83;;;2.60;;
3733;SDS011;1882;52.256;8.874;2022-07-29T08:10:59;4.13;;;2.27;;
3733;SDS011;1882;52.256;8.874;2022-07-29T08:13:34;5.63;;;2.57;;
3733;SDS011;1882;52.256;8.874;2022-07-29T08:16:03;7.17;;;2.57;;
3733;SDS011;1882;52.256;8.874;2022-07-29T08:18:42;6.17;;;2.40;;
3733;SDS011;1882;52.256;8.874;2022-07-29T08:21:11;3.70;;;2.20;;
3733;SDS011;1882;52.256;8.874;2022-07-29T08:23:41;3.97;;;2.37;;
3733;SDS011;1882;52.256;8.874;2022-07-29T08:26:23;5.10;;;2.40;;
3733;SDS011;1882;52.256;8.874;2022-07-29T08:28:50;5.40;;;2.43;;
3733;SDS011;1882;52.256;8.874;2022-07-29T08:31:18;9.47;;;2.80;;
3733;SDS011;1882;52.256;8.874;2022-07-29T08:33:45;11.00;;;2.60;;
3733;SDS011;1882;52.256;8.874;2022-07-29T08:36:13;7.97;;;2.70;;
3733;SDS011;1882;52.256;8.874;2022-07-29T08:38:41;6.43;;;2.50;;
3733;SDS011;1882;52.256;8.874;2022-07-29T08:41:09;4.47;;;2.30;;
3733;SDS011;1882;52.256;8.874;2022-07-29T08:43:36;10.70;;;3.00;;
3733;SDS011;1882;52.256;8.874;2022-07-29T08:46:05;5.70;;;2.90;;
3733;SDS011;1882;52.256;8.874;2022-07-29T08:48:33;6.37;;;2.60;;
3733;SDS011;1882;52.256;8.874;2022-07-29T08:51:03;8.30;;;2.87;;
3733;SDS011;1882;52.256;8.874;2022-07-29T08:53:30;4.97;;;2.40;;
3733;SDS011;1882;52.256;8.874;2022-07-29T08:55:58;5.23;;;2.33;;
3733;SDS011;1882;52.256;8.874;2022-07-29T08:58:25;6.17;;;2.60;;
3733;SDS011;1882;52.256;8.874;2022-07-29T09:00:54;4.60;;;2.53;;
3733;SDS011;1882;52.256;8.874;2022-07-29T09:03:24;8.07;;;2.10;;
3733;SDS011;1882;52.256;8.874;2022-07-29T09:05:52;3.87;;;2.13;;
3733;SDS011;1882;52.256;8.874;2022-07-29T09:08:21;9.40;;;2.50;;
3733;SDS011;1882;52.256;8.874;2022-07-29T09:10:49;4.27;;;2.20;;
3733;SDS011;1882;52.256;8.874;2022-07-29T09:13:27;3.63;;;2.33;;
3733;SDS011;1882;52.256;8.874;2022-07-29T09:15:55;5.57;;;2.30;;
3733;SDS011;1882;52.256;8.874;2022-07-29T09:18:35;5.93;;;2.40;;
3733;SDS011;1882;52.256;8.874;2022-07-29T09:21:11;6.83;;;2.50;;
3733;SDS011;1882;52.256;8.874;2022-07-29T09:27:09;8.20;;;2.77;;
3733;SDS011;1882;52.256;8.874;2022-07-29T09:29:38;7.77;;;3.10;;
3733;SDS011;1882;52.256;8.874;2022-07-29T09:32:06;4.70;;;2.63;;
3733;SDS011;1882;52.256;8.874;2022-07-29T09:34:36;5.50;;;2.50;;
3733;SDS011;1882;52.256;8.874;2022-07-29T09:37:04;4.53;;;2.30;;
3733;SDS011;1882;52.256;8.874;2022-07-29T09:39:33;7.03;;;2.80;;
3733;SDS011;1882;52.256;8.874;2022-07-29T09:42:03;5.40;;;2.33;;
3733;SDS011;1882;52.256;8.874;2022-07-29T09:47:16;7.37;;;2.83;;
3733;SDS011;1882;52.256;8.874;2022-07-29T09:49:55;6.37;;;3.20;;
3733;SDS011;1882;52.256;8.874;2022-07-29T09:52:25;10.43;;;2.60;;
3733;SDS011;1882;52.256;8.874;2022-07-29T09:54:52;4.30;;;2.43;;
3733;SDS011;1882;52.256;8.874;2022-07-29T09:57:26;5.90;;;2.73;;
3733;SDS011;1882;52.256;8.874;2022-07-29T10:02:28;7.83;;;2.57;;
3733;SDS011;1882;52.256;8.874;2022-07-29T10:04:58;6.43;;;2.37;;
3733;SDS011;1882;52.256;8.874;2022-07-29T10:07:25;9.80;;;2.73;;
3733;SDS011;1882;52.256;8.874;2022-07-29T10:09:56;7.40;;;2.83;;
3733;SDS011;1882;52.256;8.874;2022-07-29T10:12:26;4.57;;;2.50;;
3733;SDS011;1882;52.256;8.874;2022-07-29T10:15:02;5.70;;;2.20;;
3733;SDS011;1882;52.256;8.874;2022-07-29T10:17:55;7.83;;;2.50;;
3733;SDS011;1882;52.256;8.874;2022-07-29T10:20:27;9.70;;;2.50;;
3733;SDS011;1882;52.256;8.874;2022-07-29T10:22:54;8.60;;;3.20;;
3733;SDS011;1882;52.256;8.874;2022-07-29T10:25:29;4.03;;;2.70;;
3733;SDS011;1882;52.256;8.874;2022-07-29T10:28:20;9.70;;;2.90;;
3733;SDS011;1882;52.256;8.874;2022-07-29T10:30:48;7.77;;;2.90;;
3733;SDS011;1882;52.256;8.874;2022-07-29T10:37:22;10.13;;;2.80;;
3733;SDS011;1882;52.256;8.874;2022-07-29T10:43:32;4.83;;;2.90;;
3733;SDS011;1882;52.256;8.874;2022-07-29T10:46:24;4.57;;;2.90;;
3733;SDS011;1882;52.256;8.874;2022-07-29T10:52:15;5.57;;;2.73;;
3733;SDS011;1882;52.256;8.874;2022-07-29T10:55:00;4.67;;;3.10;;
3733;SDS011;1882;52.256;8.874;2022-07-29T11:00:55;5.30;;;2.90;;
3733;SDS011;1882;52.256;8.874;2022-07-29T11:03:58;5.83;;;2.73;;
3733;SDS011;1882;52.256;8.874;2022-07-29T11:09:42;4.80;;;2.70;;
3733;SDS011;1882;52.256;8.874;2022-07-29T11:15:21;6.10;;;2.90;;
3733;SDS011;1882;52.256;8.874;2022-07-29T11:18:17;6.47;;;3.17;;
3733;SDS011;1882;52.256;8.874;2022-07-29T11:21:38;5.33;;;2.60;;
3733;SDS011;1882;52.256;8.874;2022-07-29T11:27:16;9.13;;;2.80;;
3733;SDS011;1882;52.256;8.874;2022-07-29T11:30:12;7.23;;;2.83;;
3733;SDS011;1882;52.256;8.874;2022-07-29T11:32:54;8.00;;;2.43;;
3733;SDS011;1882;52.256;8.874;2022-07-29T11:35:23;5.40;;;3.00;;
3733;SDS011;1882;52.256;8.874;2022-07-29T11:38:26;7.40;;;3.30;;
3733;SDS011;1882;52.256;8.874;2022-07-29T11:41:25;5.70;;;2.63;;
3733;SDS011;1882;52.256;8.874;2022-07-29T11:44:01;7.33;;;2.90;;
3733;SDS011;1882;52.256;8.874;2022-07-29T11:46:47;7.07;;;2.97;;
3733;SDS011;1882;52.256;8.874;2022-07-29T11:49:23;9.10;;;2.90;;
3733;SDS011;1882;52.256;8.874;2022-07-29T11:55:28;7.17;;;2.80;;
3733;SDS011;1882;52.256;8.874;2022-07-29T11:58:16;8.80;;;3.00;;
3733;SDS011;1882;52.256;8.874;2022-07-29T12:01:08;8.60;;;3.00;;
3733;SDS011;1882;52.256;8.874;2022-07-29T12:03:49;6.40;;;3.00;;
3733;SDS011;1882;52.256;8.874;2022-07-29T12:06:49;9.87;;;3.00;;
3733;SDS011;1882;52.256;8.874;2022-07-29T12:12:31;7.53;;;3.30;;
3733;SDS011;1882;52.256;8.874;2022-07-29T12:15:16;4.43;;;3.00;;
3733;SDS011;1882;52.256;8.874;2022-07-29T12:18:21;4.20;;;3.00;;
3733;SDS011;1882;52.256;8.874;2022-07-29T12:21:24;9.43;;;3.13;;
3733;SDS011;1882;52.256;8.874;2022-07-29T12:26:36;9.83;;;3.10;;
3733;SDS011;1882;52.256;8.874;2022-07-29T12:29:38;4.90;;;3.30;;
3733;SDS011;1882;52.256;8.874;2022-07-29T12:35:22;5.60;;;3.33;;
3733;SDS011;1882;52.256;8.874;2022-07-29T12:37:52;6.93;;;3.00;;
3733;SDS011;1882;52.256;8.874;2022-07-29T12:40:21;12.47;;;3.40;;
3733;SDS011;1882;52.256;8.874;2022-07-29T12:43:32;6.53;;;3.30;;
3733;SDS011;1882;52.256;8.874;2022-07-29T12:46:11;6.07;;;3.30;;
3733;SDS011;1882;52.256;8.874;2022-07-29T12:48:50;5.00;;;3.20;;
3733;SDS011;1882;52.256;8.874;2022-07-29T12:54:36;5.13;;;3.40;;
3733;SDS011;1882;52.256;8.874;2022-07-29T12:57:18;4.70;;;3.23;;
3733;SDS011;1882;52.256;8.874;2022-07-29T13:00:03;7.40;;;3.20;;
3733;SDS011;1882;52.256;8.874;2022-07-29T13:03:06;7.57;;;3.47;;
3733;SDS011;1882;52.256;8.874;2022-07-29T13:05:43;6.53;;;3.00;;
3733;SDS011;1882;52.256;8.874;2022-07-29T13:08:15;10.63;;;3.30;;
3733;SDS011;1882;52.256;8.874;2022-07-29T13:10:55;13.30;;;3.40;;
3733;SDS011;1882;52.256;8.874;2022-07-29T13:13:22;9.17;;;3.60;;
3733;SDS011;1882;52.256;8.874;2022-07-29T13:16:04;9.10;;;3.73;;
3733;SDS011;1882;52.256;8.874;2022-07-29T13:18:33;5.17;;;3.20;;
3733;SDS011;1882;52.256;8.874;2022-07-29T13:21:11;4.90;;;2.93;;
3733;SDS011;1882;52.256;8.874;2022-07-29T13:23:44;9.97;;;3.30;;
3733;SDS011;1882;52.256;8.874;2022-07-29T13:26:11;12.33;;;3.43;;
3733;SDS011;1882;52.256;8.874;2022-07-29T13:28:40;6.80;;;3.37;;
3733;SDS011;1882;52.256;8.874;2022-07-29T13:31:09;7.43;;;3.80;;
3733;SDS011;1882;52.256;8.874;2022-07-29T13:33:36;4.53;;;3.27;;
3733;SDS011;1882;52.256;8.874;2022-07-29T13:36:04;5.00;;;3.20;;
3733;SDS011;1882;52.256;8.874;2022-07-29T13:38:31;4.10;;;3.13;;
3733;SDS011;1882;52.256;8.874;2022-07-29T13:41:01;9.63;;;3.57;;
3733;SDS011;1882;52.256;8.874;2022-07-29T13:43:28;7.63;;;4.07;;
3733;SDS011;1882;52.256;8.874;2022-07-29T13:45:55;5.00;;;3.67;;
3733;SDS011;1882;52.256;8.874;2022-07-29T13:48:22;4.67;;;3.47;;
3733;SDS011;1882;52.256;8.874;2022-07-29T13:50:50;4.53;;;3.60;;
3733;SDS011;1882;52.256;8.874;2022-07-29T13:53:17;12.43;;;3.77;;
3733;SDS011;1882;52.256;8.874;2022-07-29T13:55:52;11.17;;;4.00;;
3733;SDS011;1882;52.256;8.874;2022-07-29T13:58:19;6.40;;;3.40;;
3733;SDS011;1882;52.256;8.874;2022-07-29T14:00:46;8.00;;;3.60;;
3733;SDS011;1882;52.256;8.874;2022-07-29T14:03:13;5.13;;;3.90;;
3733;SDS011;1882;52.256;8.874;2022-07-29T14:05:43;6.27;;;3.93;;
3733;SDS011;1882;52.256;8.874;2022-07-29T14:08:15;7.13;;;3.37;;
3733;SDS011;1882;52.256;8.874;2022-07-29T14:10:49;9.10;;;3.87;;
3733;SDS011;1882;52.256;8.874;2022-07-29T14:13:16;10.93;;;3.43;;
3733;SDS011;1882;52.256;8.874;2022-07-29T14:15:51;7.97;;;3.47;;
3733;SDS011;1882;52.256;8.874;2022-07-29T14:18:21;5.87;;;3.93;;
3733;SDS011;1882;52.256;8.874;2022-07-29T14:20:48;8.10;;;4.60;;
3733;SDS011;1882;52.256;8.874;2022-07-29T14:23:18;6.13;;;3.87;;
3733;SDS011;1882;52.256;8.874;2022-07-29T14:25:50;5.20;;;3.67;;
3733;SDS011;1882;52.256;8.874;2022-07-29T14:28:18;11.40;;;3.63;;
3733;SDS011;1882;52.256;8.874;2022-07-29T14:30:45;7.77;;;3.70;;
3733;SDS011;1882;52.256;8.874;2022-07-29T14:33:18;5.10;;;3.70;;
3733;SDS011;1882;52.256;8.874;2022-07-29T14:35:44;12.37;;;3.60;;
3733;SDS011;1882;52.256;8.874;2022-07-29T14:38:12;4.70;;;4.00;;
3733;SDS011;1882;52.256;8.874;2022-07-29T14:40:39;5.07;;;3.57;;
3733;SDS011;1882;52.256;8.874;2022-07-29T14:43:16;7.90;;;3.80;;
3733;SDS011;1882;52.256;8.874;2022-07-29T14:45:43;5.30;;;4.30;;
3733;SDS011;1882;52.256;8.874;2022-07-29T14:48:10;5.43;;;3.80;;
3733;SDS011;1882;52.256;8.874;2022-07-29T14:50:40;8.43;;;4.43;;
3733;SDS011;1882;52.256;8.874;2022-07-29T14:53:12;16.23;;;3.73;;
3733;SDS011;1882;52.256;8.874;2022-07-29T14:55:48;10.77;;;3.90;;
3733;SDS011;1882;52.256;8.874;2022-07-29T14:58:59;6.23;;;3.63;;
3733;SDS011;1882;52.256;8.874;2022-07-29T15:01:39;8.10;;;3.57;;
3733;SDS011;1882;52.256;8.874;2022-07-29T15:04:42;5.57;;;3.80;;
3733;SDS011;1882;52.256;8.874;2022-07-29T15:07:09;9.77;;;4.20;;
3733;SDS011;1882;52.256;8.874;2022-07-29T15:09:41;4.97;;;3.83;;
3733;SDS011;1882;52.256;8.874;2022-07-29T15:12:15;6.70;;;3.90;;
3733;SDS011;1882;52.256;8.874;2022-07-29T15:14:47;5.83;;;3.53;;
3733;SDS011;1882;52.256;8.874;2022-07-29T15:17:26;5.53;;;3.93;;
3733;SDS011;1882;52.256;8.874;2022-07-29T15:20:11;9.03;;;3.77;;
3733;SDS011;1882;52.256;8.874;2022-07-29T15:23:30;6.57;;;3.93;;
3733;SDS011;1882;52.256;8.874;2022-07-29T15:26:16;12.80;;;3.90;;
3733;SDS011;1882;52.256;8.874;2022-07-29T15:29:04;9.33;;;4.10;;
3733;SDS011;1882;52.256;8.874;2022-07-29T15:32:04;10.73;;;4.17;;
3733;SDS011;1882;52.256;8.874;2022-07-29T15:34:37;6.77;;;3.87;;
3733;SDS011;1882;52.256;8.874;2022-07-29T15:37:11;9.63;;;4.00;;
3733;SDS011;1882;52.256;8.874;2022-07-29T15:39:40;8.30;;;4.50;;
3733;SDS011;1882;52.256;8.874;2022-07-29T15:42:06;11.07;;;4.60;;
3733;SDS011;1882;52.256;8.874;2022-07-29T15:44:47;7.03;;;4.00;;
3733;SDS011;1882;52.256;8.874;2022-07-29T15:47:14;8.47;;;3.83;;
3733;SDS011;1882;52.256;8.874;2022-07-29T15:49:47;12.57;;;4.17;;
3733;SDS011;1882;52.256;8.874;2022-07-29T15:52:31;12.97;;;4.60;;
3733;SDS011;1882;52.256;8.874;2022-07-29T15:55:04;6.83;;;4.00;;
3733;SDS011;1882;52.256;8.874;2022-07-29T15:57:50;4.70;;;3.87;;
3733;SDS011;1882;52.256;8.874;2022-07-29T16:00:41;5.93;;;4.20;;
3733;SDS011;1882;52.256;8.874;2022-07-29T16:03:18;10.13;;;3.97;;
3733;SDS011;1882;52.256;8.874;2022-07-29T16:05:58;7.00;;;3.73;;
3733;SDS011;1882;52.256;8.874;2022-07-29T16:08:53;6.37;;;3.70;;
3733;SDS011;1882;52.256;8.874;2022-07-29T16:11:21;9.43;;;3.50;;
3733;SDS011;1882;52.256;8.874;2022-07-29T16:13:55;10.60;;;4.50;;
3733;SDS011;1882;52.256;8.874;2022-07-29T16:16:33;9.17;;;4.10;;
3733;SDS011;1882;52.256;8.874;2022-07-29T16:19:11;11.47;;;4.07;;
3733;SDS011;1882;52.256;8.874;2022-07-29T16:21:43;7.57;;;3.80;;
3733;SDS011;1882;52.256;8.874;2022-07-29T16:24:53;13.10;;;4.70;;
3733;SDS011;1882;52.256;8.874;2022-07-29T16:27:42;30.50;;;4.37;;
3733;SDS011;1882;52.256;8.874;2022-07-29T16:30:28;12.33;;;4.73;;
3733;SDS011;1882;52.256;8.874;2022-07-29T16:33:00;8.20;;;3.67;;
3733;SDS011;1882;52.256;8.874;2022-07-29T16:35:44;10.73;;;3.97;;
3733;SDS011;1882;52.256;8.874;2022-07-29T16:38:21;11.10;;;4.10;;
3733;SDS011;1882;52.256;8.874;2022-07-29T16:41:01;12.93;;;4.60;;
3733;SDS011;1882;52.256;8.874;2022-07-29T16:43:31;10.97;;;4.20;;
3733;SDS011;1882;52.256;8.874;2022-07-29T16:46:01;14.00;;;4.70;;